Time;durP1;ratioP1;P1;durP2;ratioP2;P2;SDS_P1;SDS_P2;PMS_P1;PMS_P2;Temp;Humidity;BMP_temperature;BMP_pressure;BME280_temperature;BME280_humidity;BME280_pressure;Samples;Min_cycle;Max_cycle;Signal;HPM_P1;HPM_P2
2022/09/02 03:12:05;;;;;;;7.88;2.42;;;;;;;;;;2982245;28;20642;-58
2022/09/02 03:14:31;;;;;;;3.38;2.00;;;;;;;;;;4979843;28;20042;-59
2022/09/02 03:16:56;;;;;;;4.45;2.20;;;;;;;;;;4980568;28;20129;-58
2022/09/02 03:19:21;;;;;;;4.05;2.15;;;;;;;;;;4980168;28;20472;-59
2022/09/02 03:21:47;;;;;;;3.33;2.08;;;;;;;;;;4979237;28;20450;-59
2022/09/02 03:24:12;;;;;;;2.35;1.80;;;;;;;;;;4983069;28;20074;-60
2022/09/02 03:26:39;;;;;;;4.25;1.98;;;;;;;;;;4984500;28;20080;-60
2022/09/02 03:29:04;;;;;;;1.95;1.63;;;;;;;;;;4985094;28;20088;-60
2022/09/02 03:31:29;;;;;;;1.98;1.88;;;;;;;;;;4984817;28;20030;-59
2022/09/02 03:33:54;;;;;;;2.92;1.92;;;;;;;;;;4984991;28;20037;-60
2022/09/02 03:36:24;;;;;;;2.13;1.80;;;;;;;;;;4985122;28;20031;-59
2022/09/02 03:38:50;;;;;;;3.10;1.73;;;;;;;;;;4985475;28;20034;-59
2022/09/02 03:41:15;;;;;;;3.88;1.83;;;;;;;;;;4984916;28;20030;-59
2022/09/02 03:43:40;;;;;;;2.42;2.08;;;;;;;;;;4984702;28;20493;-60
2022/09/02 03:46:06;;;;;;;2.40;2.03;;;;;;;;;;4984222;28;20034;-60
2022/09/02 03:48:31;;;;;;;2.03;1.90;;;;;;;;;;4983941;28;20034;-59
2022/09/02 03:50:56;;;;;;;2.05;1.55;;;;;;;;;;4984676;28;20030;-60
2022/09/02 03:53:21;;;;;;;3.45;1.95;;;;;;;;;;4984438;28;20161;-61
2022/09/02 03:55:47;;;;;;;2.78;2.08;;;;;;;;;;4984553;28;20041;-59
2022/09/02 03:58:13;;;;;;;2.85;1.92;;;;;;;;;;4984272;28;20034;-59
2022/09/02 04:00:38;;;;;;;4.50;2.50;;;;;;;;;;4984829;28;20038;-59
2022/09/02 04:03:04;;;;;;;2.05;1.83;;;;;;;;;;4984520;28;20503;-60
2022/09/02 04:05:30;;;;;;;2.75;1.92;;;;;;;;;;4983831;28;20033;-60
2022/09/02 04:07:56;;;;;;;2.90;1.98;;;;;;;;;;4984212;28;20455;-60
2022/09/02 04:10:21;;;;;;;2.25;2.10;;;;;;;;;;4984975;28;20034;-59
2022/09/02 04:12:47;;;;;;;3.55;2.00;;;;;;;;;;4983349;28;20101;-60
2022/09/02 04:15:13;;;;;;;3.45;2.30;;;;;;;;;;4983867;28;20023;-60
2022/09/02 04:17:39;;;;;;;2.35;2.03;;;;;;;;;;4984191;28;20517;-60
2022/09/02 04:20:05;;;;;;;3.35;1.80;;;;;;;;;;4984225;28;20022;-60
2022/09/02 04:22:31;;;;;;;2.33;1.80;;;;;;;;;;4983895;28;20026;-60
2022/09/02 04:24:56;;;;;;;2.15;1.98;;;;;;;;;;4984459;28;20034;-61
2022/09/02 04:27:21;;;;;;;2.85;2.28;;;;;;;;;;4983913;28;20038;-60
2022/09/02 04:29:46;;;;;;;2.13;1.90;;;;;;;;;;4984843;28;20467;-60
2022/09/02 04:32:11;;;;;;;2.08;1.98;;;;;;;;;;4983767;28;20477;-59
2022/09/02 04:34:37;;;;;;;2.35;2.15;;;;;;;;;;4982621;28;20037;-60
2022/09/02 04:37:02;;;;;;;2.05;1.83;;;;;;;;;;4984196;28;20061;-60
2022/09/02 04:39:27;;;;;;;2.90;2.30;;;;;;;;;;4984092;28;20030;-60
2022/09/02 04:41:52;;;;;;;4.20;2.67;;;;;;;;;;4983844;28;20039;-59
2022/09/02 04:44:18;;;;;;;3.72;2.10;;;;;;;;;;4984675;28;20034;-59
2022/09/02 04:46:43;;;;;;;3.08;2.25;;;;;;;;;;4981050;28;20484;-60
2022/09/02 04:49:08;;;;;;;4.88;2.22;;;;;;;;;;4979551;28;20038;-61
2022/09/02 04:51:33;;;;;;;2.15;2.05;;;;;;;;;;4980605;28;20030;-60
2022/09/02 04:53:59;;;;;;;2.33;1.98;;;;;;;;;;4983044;28;20607;-61
2022/09/02 04:56:26;;;;;;;3.00;2.42;;;;;;;;;;4983977;28;20030;-61
2022/09/02 04:58:51;;;;;;;2.55;2.45;;;;;;;;;;4983269;28;20038;-60
2022/09/02 05:01:19;;;;;;;2.55;2.35;;;;;;;;;;4984557;28;20026;-60
2022/09/02 05:03:45;;;;;;;5.03;2.58;;;;;;;;;;4984073;28;20022;-60
2022/09/02 05:06:12;;;;;;;4.07;2.20;;;;;;;;;;4984126;28;20092;-61
2022/09/02 05:08:37;;;;;;;4.35;2.38;;;;;;;;;;4983088;28;20597;-60
2022/09/02 05:11:10;;;;;;;2.50;2.05;;;;;;;;;;4984355;28;20465;-60
2022/09/02 05:13:35;;;;;;;2.30;2.10;;;;;;;;;;4983793;28;20053;-60
2022/09/02 05:16:01;;;;;;;2.55;2.15;;;;;;;;;;4980225;28;20124;-60
2022/09/02 05:18:26;;;;;;;2.83;2.13;;;;;;;;;;4978224;28;20026;-60
2022/09/02 05:20:52;;;;;;;3.25;2.50;;;;;;;;;;4984562;28;20588;-60
2022/09/02 05:23:17;;;;;;;4.85;2.88;;;;;;;;;;4983821;28;20038;-61
2022/09/02 05:25:42;;;;;;;4.50;2.80;;;;;;;;;;4984140;28;20384;-60
2022/09/02 05:28:08;;;;;;;4.78;2.40;;;;;;;;;;4983705;28;20050;-60
2022/09/02 05:30:35;;;;;;;2.28;2.15;;;;;;;;;;4978864;28;20523;-61
2022/09/02 05:33:00;;;;;;;2.30;2.10;;;;;;;;;;4980107;28;20026;-60
2022/09/02 05:35:25;;;;;;;2.35;1.88;;;;;;;;;;4985244;28;20034;-60
2022/09/02 05:37:51;;;;;;;2.50;2.33;;;;;;;;;;4986957;28;20105;-61
2022/09/02 05:40:16;;;;;;;3.10;2.03;;;;;;;;;;4987139;28;20033;-61
2022/09/02 05:42:42;;;;;;;2.67;2.22;;;;;;;;;;4983762;28;20022;-60
2022/09/02 05:45:08;;;;;;;1.95;1.85;;;;;;;;;;4981812;28;20126;-60
2022/09/02 05:47:33;;;;;;;2.28;1.83;;;;;;;;;;4984905;28;20030;-60
2022/09/02 05:50:00;;;;;;;2.40;1.70;;;;;;;;;;4982211;28;20508;-60
2022/09/02 05:52:25;;;;;;;2.97;1.80;;;;;;;;;;4983848;28;20050;-61
2022/09/02 05:54:51;;;;;;;3.17;2.08;;;;;;;;;;4981422;28;20465;-60
2022/09/02 05:57:16;;;;;;;2.05;1.58;;;;;;;;;;4984099;28;20543;-61
2022/09/02 05:59:42;;;;;;;2.42;1.92;;;;;;;;;;4985955;28;20112;-60
2022/09/02 06:02:09;;;;;;;1.52;1.42;;;;;;;;;;4986707;28;20037;-60
2022/09/02 06:04:42;;;;;;;3.78;1.80;;;;;;;;;;4987323;28;20030;-60
2022/09/02 06:07:08;;;;;;;1.98;1.88;;;;;;;;;;4985290;28;20480;-60
2022/09/02 06:09:33;;;;;;;4.20;2.38;;;;;;;;;;4981097;28;20029;-61
2022/09/02 06:11:58;;;;;;;3.20;1.90;;;;;;;;;;4983766;28;20018;-59
2022/09/02 06:14:24;;;;;;;2.10;2.00;;;;;;;;;;4981366;28;20755;-59
2022/09/02 06:16:50;;;;;;;2.05;1.85;;;;;;;;;;4956582;28;20030;-61
2022/09/02 06:19:16;;;;;;;3.17;2.10;;;;;;;;;;4982302;28;20477;-60
2022/09/02 06:21:41;;;;;;;1.75;1.65;;;;;;;;;;4982512;28;20081;-61
2022/09/02 06:24:07;;;;;;;2.45;1.60;;;;;;;;;;4986201;28;20069;-61
2022/09/02 06:26:33;;;;;;;1.80;1.70;;;;;;;;;;4987857;28;20034;-61
2022/09/02 06:28:58;;;;;;;2.35;1.88;;;;;;;;;;4986841;28;20030;-61
2022/09/02 06:31:23;;;;;;;2.28;2.08;;;;;;;;;;4983722;28;20030;-61
2022/09/02 06:33:51;;;;;;;2.03;1.83;;;;;;;;;;4983636;28;20049;-61
2022/09/02 06:36:17;;;;;;;2.10;1.90;;;;;;;;;;4981428;28;20404;-61
2022/09/02 06:38:43;;;;;;;2.63;1.85;;;;;;;;;;4984949;28;20049;-62
2022/09/02 06:41:13;;;;;;;3.13;2.47;;;;;;;;;;4986480;28;20030;-61
2022/09/02 06:43:38;;;;;;;2.10;1.67;;;;;;;;;;4985184;28;20026;-66
2022/09/02 06:46:04;;;;;;;2.70;1.95;;;;;;;;;;4984270;28;20034;-61
2022/09/02 06:48:29;;;;;;;3.45;2.53;;;;;;;;;;4983228;28;20553;-63
2022/09/02 06:50:54;;;;;;;5.13;2.03;;;;;;;;;;4981963;28;20058;-64
2022/09/02 06:53:20;;;;;;;2.38;1.98;;;;;;;;;;4966639;28;20069;-63
2022/09/02 06:55:45;;;;;;;3.33;1.88;;;;;;;;;;4958779;28;20114;-65
2022/09/02 06:58:11;;;;;;;3.47;1.63;;;;;;;;;;4980306;28;20038;-64
2022/09/02 07:00:36;;;;;;;2.22;1.90;;;;;;;;;;4979313;28;20072;-63
2022/09/02 07:05:47;;;;;;;3.47;1.92;;;;;;;;;;4984199;28;20111;-63
2022/09/02 07:08:12;;;;;;;4.45;2.00;;;;;;;;;;4982850;28;20544;-64
2022/09/02 07:10:38;;;;;;;2.22;2.03;;;;;;;;;;4979054;28;20500;-63
2022/09/02 07:13:04;;;;;;;3.53;2.50;;;;;;;;;;4981495;28;20057;-63
2022/09/02 07:15:29;;;;;;;2.30;2.10;;;;;;;;;;4983547;28;20030;-63
2022/09/02 07:17:54;;;;;;;4.00;2.65;;;;;;;;;;4985473;28;20385;-63
2022/09/02 07:20:19;;;;;;;2.90;2.70;;;;;;;;;;4984923;28;20397;-63
2022/09/02 07:22:45;;;;;;;3.05;2.17;;;;;;;;;;4984817;28;20036;-63
2022/09/02 07:25:10;;;;;;;3.55;2.55;;;;;;;;;;4983993;28;20401;-63
2022/09/02 07:27:36;;;;;;;2.15;2.05;;;;;;;;;;4985645;28;20073;-63
2022/09/02 07:30:03;;;;;;;4.03;2.05;;;;;;;;;;4984720;28;20057;-63
2022/09/02 07:32:29;;;;;;;2.33;2.00;;;;;;;;;;4964499;28;20035;-62
2022/09/02 07:34:54;;;;;;;3.67;1.92;;;;;;;;;;4980136;28;20026;-61
2022/09/02 07:37:20;;;;;;;2.53;2.42;;;;;;;;;;4984191;28;20515;-61
2022/09/02 07:39:45;;;;;;;2.72;2.30;;;;;;;;;;4984523;28;20036;-60
2022/09/02 07:42:11;;;;;;;5.82;2.10;;;;;;;;;;4983827;28;20061;-62
2022/09/02 07:44:36;;;;;;;3.42;2.35;;;;;;;;;;4983509;28;20026;-62
2022/09/02 07:47:02;;;;;;;2.70;1.92;;;;;;;;;;4983794;28;20544;-62
2022/09/02 07:49:27;;;;;;;2.38;2.28;;;;;;;;;;4984234;28;20038;-62
2022/09/02 07:51:52;;;;;;;2.22;2.05;;;;;;;;;;4967645;28;20033;-62
2022/09/02 07:54:21;;;;;;;4.10;2.67;;;;;;;;;;4983693;28;20045;-61
2022/09/02 07:56:48;;;;;;;2.70;2.05;;;;;;;;;;4979122;28;20048;-61
2022/09/02 07:59:13;;;;;;;2.17;1.98;;;;;;;;;;4981590;28;20034;-61
2022/09/02 08:01:39;;;;;;;2.40;2.20;;;;;;;;;;4984485;28;20025;-61
2022/09/02 08:04:05;;;;;;;2.08;1.90;;;;;;;;;;4984339;28;20038;-60
2022/09/02 08:06:32;;;;;;;2.28;2.08;;;;;;;;;;4981223;28;20030;-59
2022/09/02 08:08:57;;;;;;;3.75;2.00;;;;;;;;;;4979512;28;20380;-61
2022/09/02 08:11:22;;;;;;;2.65;1.80;;;;;;;;;;4983029;28;20042;-61
2022/09/02 08:13:51;;;;;;;2.08;1.98;;;;;;;;;;4980374;28;20058;-61
2022/09/02 08:16:16;;;;;;;3.47;2.00;;;;;;;;;;4978584;28;20030;-63
2022/09/02 08:18:42;;;;;;;2.03;1.92;;;;;;;;;;4984665;28;20030;-62
2022/09/02 08:21:08;;;;;;;2.35;2.10;;;;;;;;;;4984423;28;20157;-62
2022/09/02 08:23:34;;;;;;;2.33;1.77;;;;;;;;;;4984997;28;20027;-60
2022/09/02 08:26:01;;;;;;;2.13;1.95;;;;;;;;;;4983808;28;20109;-61
2022/09/02 08:28:30;;;;;;;2.55;2.38;;;;;;;;;;4984257;28;20053;-62
2022/09/02 08:30:57;;;;;;;3.75;2.58;;;;;;;;;;4984362;28;20030;-65
2022/09/02 08:33:22;;;;;;;30.08;17.33;;;;;;;;;;4985229;28;20428;-64
2022/09/02 08:35:47;;;;;;;24.17;12.95;;;;;;;;;;4983865;28;20038;-65
2022/09/02 08:38:13;;;;;;;2.97;2.50;;;;;;;;;;4979425;28;20531;-64
2022/09/02 08:40:40;;;;;;;2.65;2.20;;;;;;;;;;4980175;28;20535;-62
2022/09/02 08:43:21;;;;;;;1.88;1.77;;;;;;;;;;4983711;28;20026;-63
2022/09/02 08:45:46;;;;;;;2.15;2.05;;;;;;;;;;4983197;28;20034;-64
2022/09/02 08:48:20;;;;;;;2.58;2.08;;;;;;;;;;4984071;28;20034;-64
2022/09/02 08:50:46;;;;;;;2.63;2.30;;;;;;;;;;4984221;28;20036;-61
2022/09/02 08:53:22;;;;;;;2.50;2.30;;;;;;;;;;4984724;28;20033;-63
2022/09/02 08:55:53;;;;;;;5.22;2.30;;;;;;;;;;4979015;28;20966;-63
2022/09/02 08:58:21;;;;;;;6.65;2.30;;;;;;;;;;4980091;28;20092;-65
2022/09/02 09:00:51;;;;;;;2.50;2.10;;;;;;;;;;4984810;28;20050;-64
2022/09/02 09:03:16;;;;;;;5.30;2.60;;;;;;;;;;4984220;28;20468;-63
2022/09/02 09:05:56;;;;;;;5.95;2.10;;;;;;;;;;4984165;28;20030;-64
2022/09/02 09:08:34;;;;;;;1.95;1.80;;;;;;;;;;4983509;28;20027;-64
2022/09/02 09:11:23;;;;;;;3.65;2.10;;;;;;;;;;4986724;28;20041;-64
2022/09/02 09:13:48;;;;;;;3.58;2.40;;;;;;;;;;4988107;28;20509;-64
2022/09/02 09:16:21;;;;;;;4.70;2.65;;;;;;;;;;4987479;28;20033;-64
2022/09/02 09:18:56;;;;;;;2.50;2.30;;;;;;;;;;4988130;28;20480;-64
2022/09/02 09:21:23;;;;;;;4.10;2.35;;;;;;;;;;4987081;28;20109;-64
2022/09/02 09:23:49;;;;;;;2.58;2.20;;;;;;;;;;4988152;28;20122;-63
2022/09/02 09:26:19;;;;;;;2.28;1.98;;;;;;;;;;4987229;28;20038;-63
2022/09/02 09:28:49;;;;;;;2.10;2.00;;;;;;;;;;4982185;28;20050;-63
2022/09/02 09:31:19;;;;;;;2.80;1.98;;;;;;;;;;4984466;28;20065;-53
2022/09/02 09:34:16;;;;;;;4.38;1.92;;;;;;;;;;4987277;28;20030;-53
2022/09/02 09:36:52;;;;;;;2.55;2.42;;;;;;;;;;4940261;28;20051;-52
2022/09/02 09:39:17;;;;;;;3.17;1.95;;;;;;;;;;4982668;28;20062;-52
2022/09/02 09:41:44;;;;;;;2.40;2.20;;;;;;;;;;4983806;28;20483;-50
2022/09/02 09:44:09;;;;;;;3.60;2.00;;;;;;;;;;4980900;28;20046;-53
2022/09/02 09:46:34;;;;;;;6.10;2.30;;;;;;;;;;4984033;28;20117;-51
2022/09/02 09:49:00;;;;;;;2.03;1.80;;;;;;;;;;4986503;28;20077;-54
2022/09/02 09:51:25;;;;;;;4.32;2.35;;;;;;;;;;4987268;28;20034;-50
2022/09/02 09:53:51;;;;;;;3.25;2.45;;;;;;;;;;4986679;28;20162;-51
2022/09/02 09:56:16;;;;;;;3.63;1.95;;;;;;;;;;4987166;28;20022;-51
2022/09/02 09:58:44;;;;;;;2.33;2.13;;;;;;;;;;4986046;28;20026;-50
2022/09/02 10:01:14;;;;;;;2.53;2.15;;;;;;;;;;4987001;28;20033;-52
2022/09/02 10:03:54;;;;;;;2.20;2.00;;;;;;;;;;4985809;28;20034;-52
2022/09/02 10:06:19;;;;;;;6.72;2.28;;;;;;;;;;4986905;28;20062;-50
2022/09/02 10:09:08;;;;;;;2.20;2.10;;;;;;;;;;4985701;28;20460;-51
2022/09/02 10:11:35;;;;;;;4.15;2.25;;;;;;;;;;4980453;28;20038;-51
2022/09/02 10:14:00;;;;;;;1.88;1.63;;;;;;;;;;4986294;28;20054;-50
2022/09/02 10:16:28;;;;;;;2.63;1.83;;;;;;;;;;4985691;28;20101;-53
2022/09/02 10:19:16;;;;;;;4.18;2.30;;;;;;;;;;4985991;28;20113;-51
2022/09/02 10:21:54;;;;;;;1.77;1.63;;;;;;;;;;4986119;28;20081;-51
2022/09/02 10:24:25;;;;;;;3.17;1.77;;;;;;;;;;4982699;28;20026;-52
2022/09/02 10:26:53;;;;;;;4.75;1.98;;;;;;;;;;4981285;28;20026;-57
2022/09/02 10:29:18;;;;;;;3.13;2.17;;;;;;;;;;4985015;28;20508;-53
2022/09/02 10:31:59;;;;;;;3.55;2.10;;;;;;;;;;4986270;28;20030;-56
2022/09/02 10:34:40;;;;;;;1.88;1.70;;;;;;;;;;4986090;28;20488;-54
2022/09/02 10:37:10;;;;;;;3.92;2.20;;;;;;;;;;4985999;28;20030;-56
2022/09/02 10:39:50;;;;;;;9.77;2.40;;;;;;;;;;4986154;28;20077;-54
2022/09/02 10:42:22;;;;;;;2.45;2.00;;;;;;;;;;4986164;28;20029;-55
2022/09/02 10:44:51;;;;;;;4.18;1.80;;;;;;;;;;4986040;28;20042;-52
2022/09/02 10:47:25;;;;;;;2.55;1.85;;;;;;;;;;4984818;28;20044;-53
2022/09/02 10:50:05;;;;;;;6.78;1.88;;;;;;;;;;4980411;28;20038;-53
2022/09/02 10:52:35;;;;;;;1.80;1.70;;;;;;;;;;4984557;28;20038;-57
2022/09/02 10:55:02;;;;;;;2.03;1.60;;;;;;;;;;4985914;28;20029;-53
2022/09/02 10:57:30;;;;;;;3.38;2.03;;;;;;;;;;4982192;28;20045;-55
2022/09/02 11:00:07;;;;;;;4.85;2.30;;;;;;;;;;4980546;28;20053;-55
2022/09/02 11:02:37;;;;;;;2.72;2.20;;;;;;;;;;4985058;28;20485;-55
2022/09/02 11:05:05;;;;;;;2.70;2.25;;;;;;;;;;4985364;28;20037;-54
2022/09/02 11:07:35;;;;;;;1.60;1.50;;;;;;;;;;4985756;28;20030;-54
2022/09/02 11:10:19;;;;;;;2.25;1.85;;;;;;;;;;4984488;28;20385;-55
2022/09/02 11:12:49;;;;;;;2.13;1.98;;;;;;;;;;4985205;28;20541;-54
2022/09/02 11:15:20;;;;;;;2.42;1.80;;;;;;;;;;4984017;28;20053;-54
2022/09/02 11:17:50;;;;;;;5.53;1.95;;;;;;;;;;4985793;28;20022;-55
2022/09/02 11:20:15;;;;;;;2.20;1.60;;;;;;;;;;4983888;28;20543;-55
2022/09/02 11:23:02;;;;;;;3.17;1.70;;;;;;;;;;4979566;28;20125;-55
2022/09/02 11:25:40;;;;;;;2.00;1.80;;;;;;;;;;4979680;28;20041;-54
2022/09/02 11:28:22;;;;;;;7.85;2.15;;;;;;;;;;4984823;28;20034;-56
2022/09/02 11:30:54;;;;;;;2.10;1.80;;;;;;;;;;4985302;28;20034;-54
2022/09/02 11:33:29;;;;;;;3.38;1.50;;;;;;;;;;4984002;28;20030;-55
2022/09/02 11:35:56;;;;;;;3.30;1.90;;;;;;;;;;4985069;28;20121;-54
2022/09/02 11:38:34;;;;;;;1.88;1.77;;;;;;;;;;4984048;28;20030;-56
2022/09/02 11:41:16;;;;;;;4.50;2.17;;;;;;;;;;4985056;28;20030;-53
2022/09/02 11:43:50;;;;;;;2.47;2.00;;;;;;;;;;4984069;28;20030;-55
2022/09/02 11:46:27;;;;;;;4.28;1.50;;;;;;;;;;4984187;28;20067;-56
2022/09/02 11:48:58;;;;;;;1.80;1.70;;;;;;;;;;4984066;28;20034;-56
2022/09/02 11:51:44;;;;;;;2.20;2.05;;;;;;;;;;4984499;28;20176;-55
2022/09/02 11:54:12;;;;;;;2.10;1.90;;;;;;;;;;4959330;28;20477;-54
2022/09/02 11:56:43;;;;;;;3.13;2.13;;;;;;;;;;4984000;28;20132;-54
2022/09/02 11:59:18;;;;;;;2.65;1.60;;;;;;;;;;4984090;28;20066;-53
2022/09/02 12:01:48;;;;;;;3.55;1.88;;;;;;;;;;4984600;28;20162;-57
2022/09/02 12:04:13;;;;;;;2.95;1.80;;;;;;;;;;4978811;28;20046;-56
2022/09/02 12:07:05;;;;;;;2.83;2.00;;;;;;;;;;4980534;28;20033;-56
2022/09/02 12:09:44;;;;;;;1.98;1.73;;;;;;;;;;4983732;28;20029;-57
2022/09/02 12:12:30;;;;;;;2.47;1.95;;;;;;;;;;4983908;28;20033;-57
2022/09/02 12:14:55;;;;;;;3.83;1.60;;;;;;;;;;4966506;28;20033;-57
2022/09/02 12:17:36;;;;;;;4.00;2.15;;;;;;;;;;4985060;28;20034;-60
2022/09/02 12:20:01;;;;;;;3.47;1.85;;;;;;;;;;4984026;28;20496;-56
2022/09/02 12:22:31;;;;;;;5.50;2.10;;;;;;;;;;4982630;28;20038;-59
2022/09/02 12:25:00;;;;;;;2.72;1.60;;;;;;;;;;4979508;28;20385;-58
2022/09/02 12:27:25;;;;;;;2.17;1.98;;;;;;;;;;4981592;28;20177;-57
2022/09/02 12:29:51;;;;;;;3.17;1.92;;;;;;;;;;4978596;28;20107;-55
2022/09/02 12:32:35;;;;;;;2.67;2.15;;;;;;;;;;4980708;28;20018;-56
2022/09/02 12:35:08;;;;;;;4.15;1.90;;;;;;;;;;4983287;28;20045;-57
2022/09/02 12:37:50;;;;;;;3.33;1.80;;;;;;;;;;4984045;28;20040;-56
2022/09/02 12:40:18;;;;;;;2.28;2.08;;;;;;;;;;4984232;28;20186;-55
2022/09/02 12:42:45;;;;;;;3.65;1.95;;;;;;;;;;4984411;28;20492;-57
2022/09/02 12:45:12;;;;;;;7.80;1.60;;;;;;;;;;4986486;28;20026;-53
2022/09/02 12:47:50;;;;;;;2.45;2.35;;;;;;;;;;4988007;28;20065;-56
2022/09/02 12:50:18;;;;;;;1.80;1.67;;;;;;;;;;4987795;28;20108;-56
2022/09/02 12:52:45;;;;;;;2.22;2.03;;;;;;;;;;4987979;28;20679;-56
2022/09/02 12:55:24;;;;;;;3.58;2.20;;;;;;;;;;4986729;28;20121;-55
2022/09/02 12:57:51;;;;;;;1.63;1.50;;;;;;;;;;4987485;28;20341;-55
2022/09/02 13:00:26;;;;;;;2.00;1.90;;;;;;;;;;4987352;28;20540;-57
2022/09/02 13:02:51;;;;;;;;;;;;;;;;;;4987453;28;20041;-58
2022/09/02 13:05:32;;;;;;;3.40;1.90;;;;;;;;;;4987445;28;20360;-57
2022/09/02 13:08:17;;;;;;;5.43;2.47;;;;;;;;;;4988338;28;20041;-57
2022/09/02 13:10:42;;;;;;;;;;;;;;;;;;4987204;28;20081;-56
2022/09/02 13:13:26;;;;;;;2.83;2.03;;;;;;;;;;4986271;28;20052;-56
2022/09/02 13:15:51;;;;;;;2.67;1.70;;;;;;;;;;4982561;28;20038;-56
2022/09/02 13:18:17;;;;;;;2.95;1.90;;;;;;;;;;4985683;28;20022;-56
2022/09/02 13:20:57;;;;;;;2.78;1.90;;;;;;;;;;4987630;28;20030;-55
2022/09/02 13:23:48;;;;;;;2.90;1.70;;;;;;;;;;4989372;28;20030;-57
2022/09/02 13:26:23;;;;;;;4.55;1.75;;;;;;;;;;4987545;28;20513;-58
2022/09/02 13:28:48;;;;;;;2.10;2.00;;;;;;;;;;4987860;28;20050;-57
2022/09/02 13:31:21;;;;;;;2.90;1.80;;;;;;;;;;4987188;28;20027;-54
2022/09/02 13:33:55;;;;;;;2.53;1.70;;;;;;;;;;4987473;28;20030;-60
2022/09/02 13:36:24;;;;;;;3.20;2.63;;;;;;;;;;4987369;28;20026;-55
2022/09/02 13:38:49;;;;;;;3.42;1.50;;;;;;;;;;4985863;28;20030;-59
2022/09/02 13:41:26;;;;;;;2.28;2.03;;;;;;;;;;4965525;28;20034;-57
2022/09/02 13:44:03;;;;;;;1.67;1.58;;;;;;;;;;4982649;28;20026;-54
2022/09/02 13:46:29;;;;;;;2.55;2.35;;;;;;;;;;4987906;28;20061;-58
2022/09/02 13:48:54;;;;;;;2.05;1.88;;;;;;;;;;4986120;28;20026;-56
2022/09/02 13:51:19;;;;;;;1.83;1.73;;;;;;;;;;4987059;28;20026;-53
2022/09/02 13:53:46;;;;;;;3.47;1.90;;;;;;;;;;4987159;28;20084;-53
2022/09/02 13:56:12;;;;;;;2.35;1.88;;;;;;;;;;4987021;28;20038;-53
2022/09/02 13:58:46;;;;;;;2.10;1.60;;;;;;;;;;4986662;28;20027;-58
2022/09/02 14:01:20;;;;;;;3.70;1.98;;;;;;;;;;4988017;28;20026;-51
2022/09/02 14:03:50;;;;;;;3.28;1.40;;;;;;;;;;4986386;28;20054;-61
2022/09/02 14:06:17;;;;;;;2.15;1.73;;;;;;;;;;4981248;28;20601;-58
2022/09/02 14:08:42;;;;;;;3.10;1.80;;;;;;;;;;4983905;28;20037;-57
2022/09/02 14:11:08;;;;;;;2.78;1.63;;;;;;;;;;4984225;28;20597;-59
2022/09/02 14:13:33;;;;;;;1.90;1.77;;;;;;;;;;4984886;28;20208;-68
2022/09/02 14:16:17;;;;;;;2.00;1.80;;;;;;;;;;4984425;28;20054;-69
2022/09/02 14:19:02;;;;;;;6.72;1.65;;;;;;;;;;4979703;28;20041;-69
2022/09/02 14:21:27;;;;;;;2.35;2.15;;;;;;;;;;4983170;28;20562;-68
2022/09/02 14:23:52;;;;;;;2.85;1.60;;;;;;;;;;4985389;28;20093;-64
2022/09/02 14:26:23;;;;;;;2.35;1.73;;;;;;;;;;4985921;28;20062;-64
2022/09/02 14:28:50;;;;;;;1.98;1.88;;;;;;;;;;4985390;28;20022;-64
2022/09/02 14:31:28;;;;;;;1.73;1.63;;;;;;;;;;4986681;28;20093;-66
2022/09/02 14:33:53;;;;;;;3.78;2.10;;;;;;;;;;4982934;28;20123;-64
2022/09/02 14:36:20;;;;;;;2.63;1.60;;;;;;;;;;4980410;28;20560;-64
2022/09/02 14:38:48;;;;;;;7.05;2.20;;;;;;;;;;4985761;28;20018;-64
2022/09/02 14:41:16;;;;;;;1.63;1.52;;;;;;;;;;4986433;28;20073;-64
2022/09/02 14:43:45;;;;;;;2.30;2.10;;;;;;;;;;4985414;28;20156;-64
2022/09/02 14:46:19;;;;;;;2.47;2.28;;;;;;;;;;4986030;28;20034;-65
2022/09/02 14:48:51;;;;;;;2.58;2.10;;;;;;;;;;4985142;28;20030;-64
2022/09/02 14:51:17;;;;;;;4.43;1.50;;;;;;;;;;4969411;28;20173;-64
2022/09/02 14:53:42;;;;;;;2.22;1.73;;;;;;;;;;4985592;28;20080;-63
2022/09/02 14:56:08;;;;;;;1.90;1.65;;;;;;;;;;4985598;28;20439;-64
2022/09/02 14:58:33;;;;;;;1.80;1.67;;;;;;;;;;4985243;28;20066;-64
2022/09/02 15:00:59;;;;;;;3.45;1.90;;;;;;;;;;4985369;28;20038;-65
2022/09/02 15:03:25;;;;;;;3.10;1.70;;;;;;;;;;4985624;28;20018;-65
2022/09/02 15:05:51;;;;;;;1.30;1.20;;;;;;;;;;4985643;28;20409;-65
2022/09/02 15:08:16;;;;;;;1.85;1.70;;;;;;;;;;4984144;28;20030;-64
2022/09/02 15:10:42;;;;;;;1.90;1.80;;;;;;;;;;4985284;28;20057;-66
2022/09/02 15:13:19;;;;;;;3.08;2.78;;;;;;;;;;4984504;28;20046;-67
2022/09/02 15:15:44;;;;;;;1.90;1.80;;;;;;;;;;4985330;28;20393;-67
2022/09/02 15:18:10;;;;;;;1.75;1.65;;;;;;;;;;4984688;28;20153;-67
2022/09/02 15:20:35;;;;;;;2.78;1.77;;;;;;;;;;4984951;28;20038;-66
2022/09/02 15:23:01;;;;;;;1.80;1.65;;;;;;;;;;4984630;28;20034;-67
2022/09/02 15:25:26;;;;;;;2.92;2.17;;;;;;;;;;4985173;28;20026;-67
2022/09/02 15:28:00;;;;;;;2.13;1.90;;;;;;;;;;5048811;28;20407;-67
2022/09/02 15:30:25;;;;;;;1.90;1.80;;;;;;;;;;5081299;28;20048;-66
2022/09/02 15:32:50;;;;;;;2.33;2.22;;;;;;;;;;5046342;28;20379;-68
2022/09/02 15:35:16;;;;;;;3.28;2.28;;;;;;;;;;5043859;28;20079;-67
2022/09/02 15:37:41;;;;;;;2.80;2.53;;;;;;;;;;5043844;28;20487;-65
2022/09/02 15:40:07;;;;;;;2.60;2.40;;;;;;;;;;5049888;28;20021;-66
2022/09/02 15:42:36;;;;;;;2.75;2.58;;;;;;;;;;5047658;28;20462;-66
2022/09/02 15:45:02;;;;;;;3.10;2.30;;;;;;;;;;5049066;28;20026;-66
2022/09/02 15:47:29;;;;;;;4.32;2.45;;;;;;;;;;5048316;28;20471;-66
2022/09/02 15:49:56;;;;;;;2.30;2.20;;;;;;;;;;5044396;28;20031;-66
2022/09/02 15:52:21;;;;;;;2.70;2.50;;;;;;;;;;5044272;28;20099;-67
2022/09/02 15:54:46;;;;;;;3.65;2.08;;;;;;;;;;5051022;28;20505;-66
2022/09/02 15:57:13;;;;;;;6.30;2.63;;;;;;;;;;5049242;28;20037;-66
2022/09/02 15:59:38;;;;;;;3.08;2.15;;;;;;;;;;5049432;28;20522;-65
2022/09/02 16:02:04;;;;;;;3.30;2.72;;;;;;;;;;5050347;28;20021;-66
2022/09/02 16:04:29;;;;;;;2.55;2.28;;;;;;;;;;5047866;28;20472;-66
2022/09/02 16:06:54;;;;;;;2.72;2.10;;;;;;;;;;5043459;28;20095;-67
2022/09/02 16:09:20;;;;;;;2.25;2.10;;;;;;;;;;5043171;28;20073;-66
2022/09/02 16:11:46;;;;;;;2.80;1.80;;;;;;;;;;5048924;28;20032;-66
2022/09/02 16:14:12;;;;;;;3.63;1.92;;;;;;;;;;5049918;28;20028;-69
2022/09/02 16:16:39;;;;;;;4.78;2.50;;;;;;;;;;5050108;28;20056;-67
2022/09/02 16:19:06;;;;;;;2.70;2.13;;;;;;;;;;5047749;28;20021;-67
2022/09/02 16:21:31;;;;;;;2.40;1.88;;;;;;;;;;5051278;28;20373;-67
2022/09/02 16:23:56;;;;;;;2.95;1.63;;;;;;;;;;5048356;28;20039;-67
2022/09/02 16:26:24;;;;;;;8.05;2.35;;;;;;;;;;5047531;28;20186;-64
2022/09/02 16:28:51;;;;;;;2.88;1.67;;;;;;;;;;5048415;28;20475;-66
2022/09/02 16:31:17;;;;;;;4.35;2.85;;;;;;;;;;5048687;28;20391;-68
2022/09/02 16:33:43;;;;;;;2.42;2.10;;;;;;;;;;5048423;28;20171;-67
2022/09/02 16:36:09;;;;;;;8.35;2.10;;;;;;;;;;5047531;28;20028;-69
2022/09/02 16:38:35;;;;;;;4.43;2.25;;;;;;;;;;5035059;28;20472;-67
2022/09/02 16:41:00;;;;;;;3.55;1.60;;;;;;;;;;5030014;28;20037;-67
2022/09/02 16:43:25;;;;;;;4.72;2.00;;;;;;;;;;5030978;28;20453;-67
2022/09/02 16:45:51;;;;;;;3.33;1.98;;;;;;;;;;5029205;28;20029;-67
2022/09/02 16:48:18;;;;;;;3.80;2.10;;;;;;;;;;5033816;28;20033;-68
2022/09/02 16:50:43;;;;;;;6.18;1.73;;;;;;;;;;5033971;28;20092;-67
2022/09/02 16:53:09;;;;;;;12.20;2.33;;;;;;;;;;5034499;28;20039;-67
2022/09/02 16:55:38;;;;;;;10.10;2.20;;;;;;;;;;5029284;28;20072;-66
2022/09/02 16:58:03;;;;;;;17.63;2.30;;;;;;;;;;5029369;28;20104;-67
2022/09/02 17:00:29;;;;;;;6.82;1.70;;;;;;;;;;5033400;28;20090;-67
2022/09/02 17:02:54;;;;;;;2.08;1.75;;;;;;;;;;5033933;28;20037;-67
2022/09/02 17:05:19;;;;;;;3.65;1.60;;;;;;;;;;5033742;28;20026;-67
2022/09/02 17:07:45;;;;;;;3.38;1.80;;;;;;;;;;5030808;28;20037;-67
2022/09/02 17:10:10;;;;;;;2.95;1.90;;;;;;;;;;5031998;28;20068;-66
2022/09/02 17:12:35;;;;;;;4.28;2.25;;;;;;;;;;5032934;28;20402;-67
2022/09/02 17:15:01;;;;;;;4.20;2.38;;;;;;;;;;5030911;28;20431;-66
2022/09/02 17:17:27;;;;;;;3.58;3.28;;;;;;;;;;5036064;28;20026;-67
2022/09/02 17:19:52;;;;;;;3.75;2.22;;;;;;;;;;5036439;28;20029;-67
2022/09/02 17:22:18;;;;;;;2.85;2.08;;;;;;;;;;5030438;28;20091;-67
2022/09/02 17:24:43;;;;;;;5.18;2.55;;;;;;;;;;5030146;28;20076;-64
2022/09/02 17:27:08;;;;;;;4.93;3.42;;;;;;;;;;5041917;28;20067;-66
2022/09/02 17:29:34;;;;;;;6.15;2.70;;;;;;;;;;5034450;28;20361;-66
2022/09/02 17:31:59;;;;;;;3.85;2.55;;;;;;;;;;5035641;28;20036;-65
2022/09/02 17:34:25;;;;;;;3.50;2.95;;;;;;;;;;5028989;28;20025;-67
2022/09/02 17:36:50;;;;;;;3.72;3.05;;;;;;;;;;5032045;28;20048;-68
2022/09/02 17:39:16;;;;;;;5.38;2.83;;;;;;;;;;5034828;28;20132;-67
2022/09/02 17:41:56;;;;;;;4.72;2.95;;;;;;;;;;5034051;28;20029;-67
2022/09/02 17:44:22;;;;;;;4.32;2.72;;;;;;;;;;5028298;28;20056;-62
2022/09/02 17:46:48;;;;;;;3.05;2.17;;;;;;;;;;5031410;28;20049;-66
2022/09/02 17:49:14;;;;;;;2.35;2.15;;;;;;;;;;5032305;28;20037;-65
2022/09/02 17:51:39;;;;;;;4.63;2.55;;;;;;;;;;5027615;28;20036;-65
2022/09/02 17:54:06;;;;;;;10.63;2.65;;;;;;;;;;5032794;28;20067;-65
2022/09/02 17:56:35;;;;;;;2.72;2.28;;;;;;;;;;5033607;28;20921;-67
2022/09/02 17:59:03;;;;;;;3.45;2.30;;;;;;;;;;5033280;28;20044;-66
2022/09/02 18:01:30;;;;;;;3.65;2.05;;;;;;;;;;5032412;28;20460;-67
2022/09/02 18:04:02;;;;;;;2.63;2.22;;;;;;;;;;5029007;28;20017;-65